Lannach, Austria
Current Conditions -  °F | °C
As of 2:20 PM on Friday 24 Oct 2014 (Local Time) from LOWG Reporting Station
Scattered Clouds Scattered Clouds  
Wind Chill: 57°   Ceiling: Unl
Heat Index: 57°   Visibility: 6mi
Dew Point: 41°   Wind: 15mph
Humidity: 55%   Direction: 340°NNW
Pressure: 30.03"   Gusts: NA
Location:  46.94°N, 15.33°E
Report Text: LOWG 241220Z 34013KT 9999 SCT045 SCT075 14/05 Q1017 NOSIG
Loading
Personal Weather Stations






























Interactive Weather Map
Tropical Storm Tracking
New forecast layout! Learn more

10-Day Weather Forecast

Advertisements
Track Severe Weather on mobile